Unique Explorer — VRGT8 — position and weather

sailwx.info

Track history (hours):
 
Tides and Currents Weather Stations Pressure Air Temp Water Temp Dewpoint Dewpoint Depression Visibility Wind Speed Wind Dir Waves Ship Positions

Unique Explorer

Last reported at 2017-Oct-18 15:42 UTC. Time now 2017-Oct-19 01:35 UTC.
Position N 40°43' E 029°24'.

Length 183 m; draft 7.5 m.

Type: Tanker. MMSI: 477786800.

Date/timePositionNaut miles runAvg speedWind from/ knotsBaromVisibWave heightAir tempDewpointWater temp
2017-Oct-18 15:42N 40°43' E 029°24'1 6.1
2017-Oct-18 15:30N 40°43' E 029°23'3 5.5
2017-Oct-18 15:00N 40°43' E 029°19'8 7.8
2017-Oct-18 14:00N 40°44' E 029°09'612.5
2017-Oct-18 13:30N 40°44' E 029°00'13511.5
2017-Oct-18 01:46N 40°01' E 026°12'2 5.3
2017-Oct-18 01:20N 40°00' E 026°09'7 6.0
2017-Oct-18 00:12N 39°59' E 026°01'2 9.4
2017-Oct-18 00:00N 39°57' E 025°59'11 9.2
2017-Oct-17 22:46N 39°47' E 025°52'310.6
2017-Oct-17 22:30N 39°45' E 025°51'29110.6
2017-Oct-16 19:02N 35°58' E 022°01'013.1
2017-Oct-16 19:00N 35°58' E 022°00'32713.4
2017-Oct-15 18:35N 35°55' E 015°17'913.5
2017-Oct-15 17:55N 35°55' E 015°06'613.6
2017-Oct-15 17:29N 35°55' E 014°59'713.6
2017-Oct-15 17:00N 35°55' E 014°50'3 5.4
2017-Oct-15 16:30N 35°54' E 014°47'0 0.1
2017-Oct-15 16:00N 35°54' E 014°47'0 0.0
2017-Oct-15 15:30N 35°54' E 014°47'0 0.0
2017-Oct-15 15:00N 35°54' E 014°47'0 0.1
2017-Oct-15 14:00N 35°54' E 014°47'0 0.0
2017-Oct-15 13:27N 35°54' E 014°47'0 0.0
2017-Oct-15 12:48N 35°54' E 014°47'0 0.0
2017-Oct-15 12:30N 35°54' E 014°47'0 0.0
2017-Oct-15 11:57N 35°54' E 014°47'0 0.0
2017-Oct-15 11:30N 35°54' E 014°47'0 0.0
2017-Oct-15 10:51N 35°54' E 014°47'0 0.0
2017-Oct-15 10:30N 35°54' E 014°47'0 0.0
2017-Oct-15 10:00N 35°54' E 014°47'0 0.0
2017-Oct-15 09:30N 35°54' E 014°47'0 0.0
2017-Oct-15 08:54N 35°54' E 014°47'0 0.0
2017-Oct-15 08:30N 35°54' E 014°47'0 0.0
2017-Oct-15 08:00N 35°54' E 014°47'0 0.0
2017-Oct-15 07:30N 35°54' E 014°47'0 0.0
2017-Oct-15 07:00N 35°54' E 014°47'0 0.0
2017-Oct-15 06:30N 35°54' E 014°47'0 0.1
2017-Oct-15 06:00N 35°54' E 014°47'0 0.1
2017-Oct-15 05:30N 35°54' E 014°47'0 0.0
2017-Oct-15 05:00N 35°54' E 014°47'0 0.0
2017-Oct-15 04:30N 35°54' E 014°47'0 0.0
2017-Oct-15 04:00N 35°54' E 014°47'0 0.0
2017-Oct-15 03:30N 35°54' E 014°47'0 0.0
2017-Oct-15 03:00N 35°54' E 014°47'0 0.0
2017-Oct-15 02:30N 35°54' E 014°47'0 0.0
2017-Oct-15 02:00N 35°54' E 014°47'0 0.0
2017-Oct-15 01:30N 35°54' E 014°47'0 0.0
2017-Oct-15 01:00N 35°54' E 014°47'0 0.0
2017-Oct-15 00:30N 35°54' E 014°47'0 0.0
2017-Oct-15 00:00N 35°54' E 014°47'0 0.0
2017-Oct-14 23:29N 35°54' E 014°47'0 0.0
2017-Oct-14 23:00N 35°54' E 014°47'0 0.0
2017-Oct-14 22:30N 35°54' E 014°47'0 0.0
2017-Oct-14 22:00N 35°54' E 014°47'0 0.0
2017-Oct-14 21:30N 35°54' E 014°47'0 0.0
2017-Oct-14 21:00N 35°54' E 014°47'0 0.0
2017-Oct-14 20:30N 35°54' E 014°47'0 0.0
2017-Oct-14 20:00N 35°54' E 014°47'0 0.0
2017-Oct-14 19:30N 35°54' E 014°47'0 0.1
2017-Oct-14 19:00N 35°54' E 014°47'0 0.1
2017-Oct-14 18:27N 35°54' E 014°47'0 0.1
2017-Oct-14 17:57N 35°54' E 014°47'0 0.0
2017-Oct-14 17:30N 35°54' E 014°47'0 0.3
2017-Oct-14 17:00N 35°55' E 014°47'1 2.5
2017-Oct-14 16:30N 35°55' E 014°48'2 2.8
2017-Oct-14 15:58N 35°56' E 014°50'0 0.0
2017-Oct-14 15:28N 35°56' E 014°50'0 0.1
2017-Oct-14 14:58N 35°56' E 014°50'0 0.0
2017-Oct-14 14:28N 35°56' E 014°50'0 0.0
2017-Oct-14 13:58N 35°56' E 014°50'0 0.0
2017-Oct-14 13:28N 35°56' E 014°50'0 0.0
2017-Oct-14 12:52N 35°56' E 014°50'0 0.0
2017-Oct-14 12:28N 35°56' E 014°50'0 0.0
2017-Oct-14 11:58N 35°56' E 014°50'0 0.0
2017-Oct-14 11:28N 35°56' E 014°50'0 0.0
2017-Oct-14 10:55N 35°56' E 014°50'0 0.0
2017-Oct-14 10:28N 35°56' E 014°50'0 0.0
2017-Oct-14 09:55N 35°56' E 014°50'0 0.0
2017-Oct-14 09:25N 35°56' E 014°50'1 1.7
2017-Oct-14 08:46N 35°56' E 014°49'2 6.4
2017-Oct-14 08:30N 35°57' E 014°47'4 8.5
2017-Oct-14 08:00N 35°59' E 014°43'3 5.9
2017-Oct-14 07:30N 36°02' E 014°40'4 8.6
2017-Oct-14 07:00N 36°04' E 014°36'611.9
2017-Oct-14 06:30N 36°08' E 014°30'713.5
2017-Oct-14 05:59N 36°10' E 014°22'713.4
2017-Oct-14 05:30N 36°13' E 014°14'713.5
2017-Oct-14 05:00N 36°15' E 014°07'713.6
2017-Oct-14 04:31N 36°18' E 013°59'713.6
2017-Oct-14 04:01N 36°21' E 013°51'713.5
2017-Oct-14 03:30N 36°24' E 013°44'35 6.8
2017-Oct-13 22:23N 36°38' E 013°04'25313.4
2017-Oct-13 03:33N 37°46' E 007°59'214.1
2017-Oct-13 03:23N 37°46' E 007°56'514.1
2017-Oct-13 03:01N 37°46' E 007°50'814.0
2017-Oct-13 02:28N 37°45' E 007°40'12113.4
2017-Oct-12 17:22N 37°31' E 005°07'19013.6
2017-Oct-12 03:24N 36°58' E 001°12'513.0
2017-Oct-12 03:00N 36°56' E 001°06'712.9
2017-Oct-12 02:28N 36°54' E 000°58'612.8
2017-Oct-12 02:00N 36°53' E 000°51'812.6
2017-Oct-12 01:23N 36°51' E 000°41'513.4
2017-Oct-12 01:00N 36°49' E 000°35'713.4
2017-Oct-12 00:29N 36°47' E 000°27'613.4
2017-Oct-12 00:00N 36°45' E 000°20'713.4
2017-Oct-11 23:30N 36°42' E 000°12'713.3
2017-Oct-11 22:59N 36°41' E 000°03'713.5
2017-Oct-11 22:29N 36°39' W 000°05'813.6
2017-Oct-11 21:53N 36°37' W 000°15'513.5
2017-Oct-11 21:30N 36°36' W 000°21'713.4
2017-Oct-11 21:00N 36°34' W 000°29'713.3
2017-Oct-11 20:30N 36°33' W 000°37'713.5
2017-Oct-11 20:00N 36°31' W 000°45'3813.9
2017-Oct-11 17:15N 36°19' W 001°30'414.1
2017-Oct-11 17:00N 36°18' W 001°34'22213.1
2017-Oct-11 00:00N 35°53' W 006°07'3012.1
2017-Oct-10 21:32N 35°54' W 006°44'012.3
2017-Oct-10 21:30N 35°54' W 006°45'912.3
2017-Oct-10 20:47N 35°54' W 006°55'413.0
2017-Oct-10 20:30N 35°54' W 007°00'713.3
2017-Oct-10 20:00N 35°55' W 007°08'613.1
2017-Oct-10 19:30N 35°55' W 007°16'713.2
2017-Oct-10 19:00N 35°56' W 007°24'713.2
2017-Oct-10 18:30N 35°57' W 007°32'713.2
2017-Oct-10 18:00N 35°58' W 007°41'613.1
2017-Oct-10 17:30N 35°58' W 007°48'612.8
2017-Oct-10 17:00N 35°59' W 007°56'612.7
2017-Oct-10 16:30N 35°59' W 008°04'612.6
2017-Oct-10 16:00N 35°59' W 008°12'612.8
2017-Oct-10 15:30N 35°59' W 008°20'713.0
2017-Oct-10 15:00N 35°60' W 008°28'1313.1
2017-Oct-10 14:00N 35°60' W 008°44'713.2
2017-Oct-10 13:29N 36°00' W 008°53'714.0
2017-Oct-10 13:00N 36°01' W 009°01'713.6
2017-Oct-10 12:29N 36°01' W 009°10'613.4
2017-Oct-10 12:00N 36°01' W 009°18'713.5
2017-Oct-10 11:30N 36°02' W 009°26'713.4
2017-Oct-10 11:00N 36°01' W 009°34'713.4
2017-Oct-10 10:31N 36°01' W 009°42'714.2
2017-Oct-10 10:00N 36°02' W 009°51'713.1
2017-Oct-10 09:30N 36°02' W 009°59'612.9
2017-Oct-10 09:00N 36°03' W 010°07'612.9
2017-Oct-10 08:30N 36°03' W 010°15'612.7
2017-Oct-10 08:00N 36°04' W 010°23'612.7
2017-Oct-10 07:30N 36°04' W 010°31'612.6
2017-Oct-10 07:00N 36°05' W 010°39'612.8
2017-Oct-10 06:30N 36°05' W 010°47'612.9
2017-Oct-10 06:00N 36°05' W 010°54'612.9
2017-Oct-10 05:30N 36°06' W 011°02'713.0
2017-Oct-10 05:00N 36°06' W 011°10'713.0
2017-Oct-10 04:30N 36°07' W 011°18'713.2
2017-Oct-10 04:00N 36°07' W 011°27'612.8
2017-Oct-10 03:30N 36°07' W 011°35'612.4
2017-Oct-10 03:00N 36°08' W 011°42'612.8
2017-Oct-10 02:30N 36°08' W 011°50'713.2
2017-Oct-10 02:00N 36°08' W 011°58'713.4
2017-Oct-10 01:30N 36°09' W 012°06'713.3
2017-Oct-10 01:00N 36°11' W 012°14'613.1
2017-Oct-10 00:30N 36°12' W 012°22'612.9
2017-Oct-10 00:00N 36°13' W 012°30'612.6
2017-Oct-09 23:30N 36°13' W 012°38'612.7
2017-Oct-09 23:00N 36°13' W 012°46'713.0
2017-Oct-09 22:30N 36°14' W 012°54'713.2
2017-Oct-09 22:00N 36°14' W 013°02'713.4
2017-Oct-09 21:30N 36°15' W 013°11'713.3
2017-Oct-09 21:00N 36°15' W 013°19'713.6
2017-Oct-09 20:30N 36°15' W 013°27'713.2
2017-Oct-09 20:00N 36°16' W 013°35'713.3
2017-Oct-09 19:30N 36°16' W 013°44'713.3
2017-Oct-09 19:00N 36°17' W 013°52'713.1
2017-Oct-09 18:30N 36°17' W 013°60'612.7
2017-Oct-09 18:00N 36°17' W 014°08'612.6
2017-Oct-09 17:30N 36°18' W 014°16'612.6
2017-Oct-09 17:00N 36°18' W 014°23'712.5
2017-Oct-09 16:28N 36°19' W 014°32'612.6
2017-Oct-09 16:00N 36°19' W 014°39'712.7
2017-Oct-09 15:26N 36°19' W 014°48'512.8
2017-Oct-09 15:00N 36°19' W 014°55'612.8
2017-Oct-09 14:30N 36°19' W 015°03'612.8
2017-Oct-09 14:00N 36°20' W 015°11'612.7
2017-Oct-09 13:30N 36°20' W 015°19'612.6
2017-Oct-09 13:00N 36°20' W 015°26'612.6
2017-Oct-09 12:30N 36°20' W 015°34'612.7
2017-Oct-09 12:00N 36°20' W 015°42'612.9
2017-Oct-09 11:30N 36°21' W 015°50'612.9
2017-Oct-09 11:00N 36°21' W 015°58'612.9
2017-Oct-09 10:30N 36°21' W 016°06'714.0
2017-Oct-09 10:00N 36°22' W 016°15'713.5
2017-Oct-09 09:30N 36°22' W 016°23'612.8
2017-Oct-09 09:00N 36°22' W 016°31'713.0
2017-Oct-09 08:30N 36°23' W 016°39'613.0
2017-Oct-09 08:00N 36°23' W 016°47'712.8
2017-Oct-09 07:29N 36°23' W 016°55'613.0
2017-Oct-09 07:00N 36°23' W 017°03'2112.8
2017-Oct-09 05:21N 36°24' W 017°29'1712.9
2017-Oct-09 04:03N 36°25' W 017°50'312.8
2017-Oct-09 03:47N 36°25' W 017°54'412.8
2017-Oct-09 03:30N 36°25' W 017°59'612.6
2017-Oct-09 02:59N 36°26' W 018°07'612.5
2017-Oct-09 02:30N 36°26' W 018°14'812.3
2017-Oct-09 01:53N 36°27' W 018°24'  
Track history (hours):
 
Tides and Currents Weather Stations Pressure Air Temp Water Temp Dewpoint Dewpoint Depression Visibility Wind Speed Wind Dir Waves Ship Positions

Unique Explorer

Last reported at 2017-Oct-18 15:42 UTC. Time now 2017-Oct-19 01:35 UTC.
Position N 40°43' E 029°24'.

Length 183 m; draft 7.5 m.

Type: Tanker. MMSI: 477786800.

Date/timePositionNaut miles runAvg speedWind from/ knotsBaromVisibWave heightAir tempDewpointWater temp
2017-Oct-18 15:42N 40°43' E 029°24'1 6.1
2017-Oct-18 15:30N 40°43' E 029°23'3 5.5
2017-Oct-18 15:00N 40°43' E 029°19'8 7.8
2017-Oct-18 14:00N 40°44' E 029°09'612.5
2017-Oct-18 13:30N 40°44' E 029°00'13511.5
2017-Oct-18 01:46N 40°01' E 026°12'2 5.3
2017-Oct-18 01:20N 40°00' E 026°09'7 6.0
2017-Oct-18 00:12N 39°59' E 026°01'2 9.4
2017-Oct-18 00:00N 39°57' E 025°59'11 9.2
2017-Oct-17 22:46N 39°47' E 025°52'310.6
2017-Oct-17 22:30N 39°45' E 025°51'29110.6
2017-Oct-16 19:02N 35°58' E 022°01'013.1
2017-Oct-16 19:00N 35°58' E 022°00'32713.4
2017-Oct-15 18:35N 35°55' E 015°17'913.5
2017-Oct-15 17:55N 35°55' E 015°06'613.6
2017-Oct-15 17:29N 35°55' E 014°59'713.6
2017-Oct-15 17:00N 35°55' E 014°50'3 5.4
2017-Oct-15 16:30N 35°54' E 014°47'0 0.1
2017-Oct-15 16:00N 35°54' E 014°47'0 0.0
2017-Oct-15 15:30N 35°54' E 014°47'0 0.0
2017-Oct-15 15:00N 35°54' E 014°47'0 0.1
2017-Oct-15 14:00N 35°54' E 014°47'0 0.0
2017-Oct-15 13:27N 35°54' E 014°47'0 0.0
2017-Oct-15 12:48N 35°54' E 014°47'0 0.0
2017-Oct-15 12:30N 35°54' E 014°47'0 0.0
2017-Oct-15 11:57N 35°54' E 014°47'0 0.0
2017-Oct-15 11:30N 35°54' E 014°47'0 0.0
2017-Oct-15 10:51N 35°54' E 014°47'0 0.0
2017-Oct-15 10:30N 35°54' E 014°47'0 0.0
2017-Oct-15 10:00N 35°54' E 014°47'0 0.0
2017-Oct-15 09:30N 35°54' E 014°47'0 0.0
2017-Oct-15 08:54N 35°54' E 014°47'0 0.0
2017-Oct-15 08:30N 35°54' E 014°47'0 0.0
2017-Oct-15 08:00N 35°54' E 014°47'0 0.0
2017-Oct-15 07:30N 35°54' E 014°47'0 0.0
2017-Oct-15 07:00N 35°54' E 014°47'0 0.0
2017-Oct-15 06:30N 35°54' E 014°47'0 0.1
2017-Oct-15 06:00N 35°54' E 014°47'0 0.1
2017-Oct-15 05:30N 35°54' E 014°47'0 0.0
2017-Oct-15 05:00N 35°54' E 014°47'0 0.0
2017-Oct-15 04:30N 35°54' E 014°47'0 0.0
2017-Oct-15 04:00N 35°54' E 014°47'0 0.0
2017-Oct-15 03:30N 35°54' E 014°47'0 0.0
2017-Oct-15 03:00N 35°54' E 014°47'0 0.0
2017-Oct-15 02:30N 35°54' E 014°47'0 0.0
2017-Oct-15 02:00N 35°54' E 014°47'0 0.0
2017-Oct-15 01:30N 35°54' E 014°47'0 0.0
2017-Oct-15 01:00N 35°54' E 014°47'0 0.0
2017-Oct-15 00:30N 35°54' E 014°47'0 0.0
2017-Oct-15 00:00N 35°54' E 014°47'0 0.0
2017-Oct-14 23:29N 35°54' E 014°47'0 0.0
2017-Oct-14 23:00N 35°54' E 014°47'0 0.0
2017-Oct-14 22:30N 35°54' E 014°47'0 0.0
2017-Oct-14 22:00N 35°54' E 014°47'0 0.0
2017-Oct-14 21:30N 35°54' E 014°47'0 0.0
2017-Oct-14 21:00N 35°54' E 014°47'0 0.0
2017-Oct-14 20:30N 35°54' E 014°47'0 0.0
2017-Oct-14 20:00N 35°54' E 014°47'0 0.0
2017-Oct-14 19:30N 35°54' E 014°47'0 0.1
2017-Oct-14 19:00N 35°54' E 014°47'0 0.1
2017-Oct-14 18:27N 35°54' E 014°47'0 0.1
2017-Oct-14 17:57N 35°54' E 014°47'0 0.0
2017-Oct-14 17:30N 35°54' E 014°47'0 0.3
2017-Oct-14 17:00N 35°55' E 014°47'1 2.5
2017-Oct-14 16:30N 35°55' E 014°48'2 2.8
2017-Oct-14 15:58N 35°56' E 014°50'0 0.0
2017-Oct-14 15:28N 35°56' E 014°50'0 0.1
2017-Oct-14 14:58N 35°56' E 014°50'0 0.0
2017-Oct-14 14:28N 35°56' E 014°50'0 0.0
2017-Oct-14 13:58N 35°56' E 014°50'0 0.0
2017-Oct-14 13:28N 35°56' E 014°50'0 0.0
2017-Oct-14 12:52N 35°56' E 014°50'0 0.0
2017-Oct-14 12:28N 35°56' E 014°50'0 0.0
2017-Oct-14 11:58N 35°56' E 014°50'0 0.0
2017-Oct-14 11:28N 35°56' E 014°50'0 0.0
2017-Oct-14 10:55N 35°56' E 014°50'0 0.0
2017-Oct-14 10:28N 35°56' E 014°50'0 0.0
2017-Oct-14 09:55N 35°56' E 014°50'0 0.0
2017-Oct-14 09:25N 35°56' E 014°50'1 1.7
2017-Oct-14 08:46N 35°56' E 014°49'2 6.4
2017-Oct-14 08:30N 35°57' E 014°47'4 8.5
2017-Oct-14 08:00N 35°59' E 014°43'3 5.9
2017-Oct-14 07:30N 36°02' E 014°40'4 8.6
2017-Oct-14 07:00N 36°04' E 014°36'611.9
2017-Oct-14 06:30N 36°08' E 014°30'713.5
2017-Oct-14 05:59N 36°10' E 014°22'713.4
2017-Oct-14 05:30N 36°13' E 014°14'713.5
2017-Oct-14 05:00N 36°15' E 014°07'713.6
2017-Oct-14 04:31N 36°18' E 013°59'713.6
2017-Oct-14 04:01N 36°21' E 013°51'713.5
2017-Oct-14 03:30N 36°24' E 013°44'35 6.8
2017-Oct-13 22:23N 36°38' E 013°04'25313.4
2017-Oct-13 03:33N 37°46' E 007°59'214.1
2017-Oct-13 03:23N 37°46' E 007°56'514.1
2017-Oct-13 03:01N 37°46' E 007°50'814.0
2017-Oct-13 02:28N 37°45' E 007°40'12113.4
2017-Oct-12 17:22N 37°31' E 005°07'19013.6
2017-Oct-12 03:24N 36°58' E 001°12'513.0
2017-Oct-12 03:00N 36°56' E 001°06'712.9
2017-Oct-12 02:28N 36°54' E 000°58'612.8
2017-Oct-12 02:00N 36°53' E 000°51'812.6
2017-Oct-12 01:23N 36°51' E 000°41'513.4
2017-Oct-12 01:00N 36°49' E 000°35'713.4
2017-Oct-12 00:29N 36°47' E 000°27'613.4
2017-Oct-12 00:00N 36°45' E 000°20'713.4
2017-Oct-11 23:30N 36°42' E 000°12'713.3
2017-Oct-11 22:59N 36°41' E 000°03'713.5
2017-Oct-11 22:29N 36°39' W 000°05'813.6
2017-Oct-11 21:53N 36°37' W 000°15'513.5
2017-Oct-11 21:30N 36°36' W 000°21'713.4
2017-Oct-11 21:00N 36°34' W 000°29'713.3
2017-Oct-11 20:30N 36°33' W 000°37'713.5
2017-Oct-11 20:00N 36°31' W 000°45'3813.9
2017-Oct-11 17:15N 36°19' W 001°30'414.1
2017-Oct-11 17:00N 36°18' W 001°34'22213.1
2017-Oct-11 00:00N 35°53' W 006°07'3012.1
2017-Oct-10 21:32N 35°54' W 006°44'012.3
2017-Oct-10 21:30N 35°54' W 006°45'912.3
2017-Oct-10 20:47N 35°54' W 006°55'413.0
2017-Oct-10 20:30N 35°54' W 007°00'713.3
2017-Oct-10 20:00N 35°55' W 007°08'613.1
2017-Oct-10 19:30N 35°55' W 007°16'713.2
2017-Oct-10 19:00N 35°56' W 007°24'713.2
2017-Oct-10 18:30N 35°57' W 007°32'713.2
2017-Oct-10 18:00N 35°58' W 007°41'613.1
2017-Oct-10 17:30N 35°58' W 007°48'612.8
2017-Oct-10 17:00N 35°59' W 007°56'612.7
2017-Oct-10 16:30N 35°59' W 008°04'612.6
2017-Oct-10 16:00N 35°59' W 008°12'612.8
2017-Oct-10 15:30N 35°59' W 008°20'713.0
2017-Oct-10 15:00N 35°60' W 008°28'1313.1
2017-Oct-10 14:00N 35°60' W 008°44'713.2
2017-Oct-10 13:29N 36°00' W 008°53'714.0
2017-Oct-10 13:00N 36°01' W 009°01'713.6
2017-Oct-10 12:29N 36°01' W 009°10'613.4
2017-Oct-10 12:00N 36°01' W 009°18'713.5
2017-Oct-10 11:30N 36°02' W 009°26'713.4
2017-Oct-10 11:00N 36°01' W 009°34'713.4
2017-Oct-10 10:31N 36°01' W 009°42'714.2
2017-Oct-10 10:00N 36°02' W 009°51'713.1
2017-Oct-10 09:30N 36°02' W 009°59'612.9
2017-Oct-10 09:00N 36°03' W 010°07'612.9
2017-Oct-10 08:30N 36°03' W 010°15'612.7
2017-Oct-10 08:00N 36°04' W 010°23'612.7
2017-Oct-10 07:30N 36°04' W 010°31'612.6
2017-Oct-10 07:00N 36°05' W 010°39'612.8
2017-Oct-10 06:30N 36°05' W 010°47'612.9
2017-Oct-10 06:00N 36°05' W 010°54'612.9
2017-Oct-10 05:30N 36°06' W 011°02'713.0
2017-Oct-10 05:00N 36°06' W 011°10'713.0
2017-Oct-10 04:30N 36°07' W 011°18'713.2
2017-Oct-10 04:00N 36°07' W 011°27'612.8
2017-Oct-10 03:30N 36°07' W 011°35'612.4
2017-Oct-10 03:00N 36°08' W 011°42'612.8
2017-Oct-10 02:30N 36°08' W 011°50'713.2
2017-Oct-10 02:00N 36°08' W 011°58'713.4
2017-Oct-10 01:30N 36°09' W 012°06'713.3
2017-Oct-10 01:00N 36°11' W 012°14'613.1
2017-Oct-10 00:30N 36°12' W 012°22'612.9
2017-Oct-10 00:00N 36°13' W 012°30'612.6
2017-Oct-09 23:30N 36°13' W 012°38'612.7
2017-Oct-09 23:00N 36°13' W 012°46'713.0
2017-Oct-09 22:30N 36°14' W 012°54'713.2
2017-Oct-09 22:00N 36°14' W 013°02'713.4
2017-Oct-09 21:30N 36°15' W 013°11'713.3
2017-Oct-09 21:00N 36°15' W 013°19'713.6
2017-Oct-09 20:30N 36°15' W 013°27'713.2
2017-Oct-09 20:00N 36°16' W 013°35'713.3
2017-Oct-09 19:30N 36°16' W 013°44'713.3
2017-Oct-09 19:00N 36°17' W 013°52'713.1
2017-Oct-09 18:30N 36°17' W 013°60'612.7
2017-Oct-09 18:00N 36°17' W 014°08'612.6
2017-Oct-09 17:30N 36°18' W 014°16'612.6
2017-Oct-09 17:00N 36°18' W 014°23'712.5
2017-Oct-09 16:28N 36°19' W 014°32'612.6
2017-Oct-09 16:00N 36°19' W 014°39'712.7
2017-Oct-09 15:26N 36°19' W 014°48'512.8
2017-Oct-09 15:00N 36°19' W 014°55'612.8
2017-Oct-09 14:30N 36°19' W 015°03'612.8
2017-Oct-09 14:00N 36°20' W 015°11'612.7
2017-Oct-09 13:30N 36°20' W 015°19'612.6
2017-Oct-09 13:00N 36°20' W 015°26'612.6
2017-Oct-09 12:30N 36°20' W 015°34'612.7
2017-Oct-09 12:00N 36°20' W 015°42'612.9
2017-Oct-09 11:30N 36°21' W 015°50'612.9
2017-Oct-09 11:00N 36°21' W 015°58'612.9
2017-Oct-09 10:30N 36°21' W 016°06'714.0
2017-Oct-09 10:00N 36°22' W 016°15'713.5
2017-Oct-09 09:30N 36°22' W 016°23'612.8
2017-Oct-09 09:00N 36°22' W 016°31'713.0
2017-Oct-09 08:30N 36°23' W 016°39'613.0
2017-Oct-09 08:00N 36°23' W 016°47'712.8
2017-Oct-09 07:29N 36°23' W 016°55'613.0
2017-Oct-09 07:00N 36°23' W 017°03'2112.8
2017-Oct-09 05:21N 36°24' W 017°29'1712.9
2017-Oct-09 04:03N 36°25' W 017°50'312.8
2017-Oct-09 03:47N 36°25' W 017°54'412.8
2017-Oct-09 03:30N 36°25' W 017°59'612.6
2017-Oct-09 02:59N 36°26' W 018°07'612.5
2017-Oct-09 02:30N 36°26' W 018°14'812.3
2017-Oct-09 01:53N 36°27' W 018°24'  

Dump ship's entire track history